createdAt,value
2017-05-04T00:00:35.378Z,62.37
2017-05-04T00:01:44.338Z,62.46
2017-05-04T00:02:53.293Z,62.18
2017-05-04T00:04:02.506Z,62.18
2017-05-04T00:05:11.460Z,62.27
2017-05-04T00:06:20.420Z,62.27
2017-05-04T00:07:29.378Z,62.18
2017-05-04T00:08:38.335Z,62.75
2017-05-04T00:09:47.628Z,62.65
2017-05-04T00:10:56.586Z,62.75
2017-05-04T00:12:05.539Z,62.75
2017-05-04T00:13:14.492Z,62.65
2017-05-04T00:14:23.451Z,62.75
2017-05-04T00:15:32.664Z,62.55
2017-05-04T00:16:41.620Z,62.84
2017-05-04T00:17:50.575Z,62.65
2017-05-04T00:18:59.532Z,62.94
2017-05-04T00:20:08.811Z,63.03
2017-05-04T00:21:18.021Z,63.6
2017-05-04T00:22:27.065Z,63.42
2017-05-04T00:23:36.107Z,63.51
2017-05-04T00:24:45.061Z,63.32
2017-05-04T00:25:54.017Z,63.8
2017-05-04T00:27:03.551Z,63.8
2017-05-04T00:28:12.838Z,63.6
2017-05-04T00:29:21.795Z,63.86
2017-05-04T00:30:30.756Z,64.18
2017-05-04T00:31:39.719Z,64.75
2017-05-04T00:32:48.932Z,64.18
2017-05-04T00:33:57.988Z,64.65
2017-05-04T00:35:06.941Z,64.94
2017-05-04T00:36:15.901Z,64.94
2017-05-04T00:37:24.946Z,64.94
2017-05-04T00:38:34.151Z,64.62
2017-05-04T00:39:43.195Z,64.65
2017-05-04T00:40:52.151Z,64.91
2017-05-04T00:42:01.101Z,65.52
2017-05-04T00:43:10.059Z,65.58
2017-05-04T00:44:19.318Z,65.71
2017-05-04T00:45:28.600Z,65.58
2017-05-04T00:46:37.553Z,65.39
2017-05-04T00:47:46.515Z,65.87
2017-05-04T00:48:55.473Z,65.96
2017-05-04T00:50:04.673Z,66.06
2017-05-04T00:51:13.623Z,66.15
2017-05-04T00:52:22.578Z,66
2017-05-04T00:53:31.530Z,65.77
2017-05-04T00:54:40.488Z,65.58
2017-05-04T00:55:49.698Z,65.58
2017-05-04T00:56:58.655Z,65.67
2017-05-04T00:58:07.698Z,65.77
2017-05-04T00:59:16.650Z,65.58
2017-05-04T01:00:25.602Z,65.67
2017-05-04T01:01:34.805Z,65.3
2017-05-04T01:02:43.760Z,65.48
2017-05-04T01:03:52.715Z,65.39
2017-05-04T01:05:01.696Z,65.58
2017-05-04T01:06:10.741Z,65.48
2017-05-04T01:07:19.938Z,65.01
2017-05-04T01:08:28.894Z,64.81
2017-05-04T01:09:37.854Z,65.01
2017-05-04T01:10:46.809Z,65.1
2017-05-04T01:11:55.760Z,65.01
2017-05-04T01:13:04.970Z,64.72
2017-05-04T01:14:13.927Z,64.72
2017-05-04T01:15:22.882Z,64.91
2017-05-04T01:16:31.831Z,65.01
2017-05-04T01:17:41.130Z,65.1
2017-05-04T01:18:50.347Z,64.62
2017-05-04T01:19:59.305Z,65.3
2017-05-04T01:21:08.263Z,64.72
2017-05-04T01:22:17.216Z,64.53
2017-05-04T01:23:26.263Z,64.72
2017-05-04T01:24:35.467Z,64.53
2017-05-04T01:25:44.421Z,64.72
2017-05-04T01:26:53.376Z,64.91
2017-05-04T01:28:02.338Z,64.62
2017-05-04T01:29:11.292Z,65.58
2017-05-04T01:30:20.502Z,65.96
2017-05-04T01:31:29.456Z,65.93
2017-05-04T01:32:38.421Z,65.83
2017-05-04T01:33:47.378Z,65.74
2017-05-04T01:34:56.333Z,66.5
2017-05-04T01:36:05.538Z,66.98
2017-05-04T01:37:14.494Z,67.27
2017-05-04T01:38:23.460Z,68.88
2017-05-04T01:39:32.417Z,71.94
2017-05-04T01:40:41.375Z,74.71
2017-05-04T01:41:50.580Z,79.44
2017-05-04T01:42:59.542Z,81.82
2017-05-04T01:44:08.497Z,84.2
2017-05-04T01:45:17.451Z,85.73
2017-05-04T01:46:26.405Z,87.02
2017-05-04T01:47:35.617Z,88.4
2017-05-04T01:48:44.584Z,88.26
2017-05-04T01:49:53.544Z,88.64
2017-05-04T01:51:02.820Z,89.4
2017-05-04T01:52:11.858Z,89.5
2017-05-04T01:53:21.441Z,90.55
2017-05-04T01:54:30.401Z,90.45
2017-05-04T01:55:39.439Z,91.22
2017-05-04T01:56:48.479Z,91.41
2017-05-04T01:57:57.838Z,92.08
2017-05-04T01:59:07.047Z,92.27
2017-05-04T02:00:16.002Z,90.64
2017-05-04T02:01:24.960Z,92.17
2017-05-04T02:02:33.909Z,92.74
2017-05-04T02:03:42.958Z,92.5
2017-05-04T02:04:52.257Z,92.22
2017-05-04T02:06:01.213Z,93.27
2017-05-04T02:07:10.163Z,91.74
2017-05-04T02:08:19.443Z,92.41
2017-05-04T02:09:28.489Z,92.89
2017-05-04T02:10:37.701Z,92.98
2017-05-04T02:11:46.651Z,93.27
2017-05-04T02:12:55.693Z,93.08
2017-05-04T02:14:04.651Z,92.5
2017-05-04T02:15:13.705Z,93.37
2017-05-04T02:16:23.006Z,93.55
2017-05-04T02:17:31.962Z,92.79
2017-05-04T02:18:40.916Z,93.37
2017-05-04T02:19:49.961Z,93.17
2017-05-04T02:20:59.004Z,94.32
2017-05-04T02:22:08.210Z,94.32
2017-05-04T02:23:17.164Z,92.65
2017-05-04T02:24:26.206Z,93.27
2017-05-04T02:25:35.160Z,93.27
2017-05-04T02:26:44.114Z,93.27
2017-05-04T02:27:53.965Z,93.46
2017-05-04T02:29:02.917Z,92.89
2017-05-04T02:30:11.878Z,93.08
2017-05-04T02:31:20.838Z,93.08
2017-05-04T02:32:30.113Z,92.6
2017-05-04T02:33:39.322Z,93.27
2017-05-04T02:34:48.277Z,93.74
2017-05-04T02:35:57.323Z,92.6
2017-05-04T02:37:06.277Z,93.37
2017-05-04T02:38:15.233Z,92.89
2017-05-04T02:39:24.467Z,93.08
2017-05-04T02:40:33.423Z,93.27
2017-05-04T02:41:42.465Z,92.41
2017-05-04T02:42:51.427Z,92.32
2017-05-04T02:44:00.388Z,92.98
2017-05-04T02:45:09.594Z,92.5
2017-05-04T02:46:18.551Z,91.55
2017-05-04T02:47:27.501Z,91.55
2017-05-04T02:48:36.788Z,91.46
2017-05-04T02:49:45.748Z,92.69
2017-05-04T02:50:55.044Z,93.08
2017-05-04T02:52:03.994Z,93.65
2017-05-04T02:53:12.946Z,93.08
2017-05-04T02:54:22.215Z,93.37
2017-05-04T02:55:31.256Z,93.37
2017-05-04T02:56:40.459Z,93.74
2017-05-04T02:57:49.501Z,93.93
2017-05-04T02:58:58.453Z,94.98
2017-05-04T03:00:07.404Z,95.98
2017-05-04T03:01:16.356Z,96.55
2017-05-04T03:02:25.588Z,96.03
2017-05-04T03:03:34.580Z,96.55
2017-05-04T03:04:43.855Z,95.89
2017-05-04T03:05:52.814Z,96.17
2017-05-04T03:07:01.769Z,96.27
2017-05-04T03:08:10.977Z,97.03
2017-05-04T03:09:20.281Z,97.6
2017-05-04T03:10:29.410Z,97.7
2017-05-04T03:11:38.359Z,98.08
2017-05-04T03:12:47.738Z,98.84
2017-05-04T03:13:56.954Z,99.03
2017-05-04T03:15:05.917Z,98.46
2017-05-04T03:16:14.868Z,99.13
2017-05-04T03:17:23.817Z,98.65
2017-05-04T03:18:32.770Z,99.51
2017-05-04T03:19:42.021Z,99.03
2017-05-04T03:20:50.979Z,99.03
2017-05-04T03:21:59.933Z,99.22
2017-05-04T03:23:08.885Z,98.46
2017-05-04T03:24:17.838Z,99.22
2017-05-04T03:25:27.095Z,99.13
2017-05-04T03:26:36.055Z,98.46
2017-05-04T03:27:45.007Z,99.03
2017-05-04T03:28:53.966Z,99.69
2017-05-04T03:30:02.919Z,99.69
2017-05-04T03:31:12.128Z,99.6
2017-05-04T03:32:21.079Z,99.03
2017-05-04T03:33:30.030Z,99.03
2017-05-04T03:34:39.317Z,99.51
2017-05-04T03:35:48.354Z,99.69
2017-05-04T03:36:57.604Z,99.6
2017-05-04T03:38:06.553Z,99.51
2017-05-04T03:39:15.509Z,99.98
2017-05-04T03:40:24.876Z,99.22
2017-05-04T03:41:34.152Z,98.88
2017-05-04T03:42:43.505Z,99.08
2017-05-04T03:43:52.459Z,99.36
2017-05-04T03:45:01.415Z,99.65
2017-05-04T03:46:10.368Z,99.99
2017-05-04T03:47:19.412Z,99.99
2017-05-04T03:48:28.663Z,99.99
2017-05-04T03:49:37.626Z,99.36
2017-05-04T03:50:46.587Z,99.84
2017-05-04T03:51:55.543Z,99.99
2017-05-04T03:53:04.498Z,99.99
2017-05-04T03:54:13.756Z,99.99
2017-05-04T03:55:22.708Z,99.99
2017-05-04T03:56:31.668Z,99.99
2017-05-04T03:57:40.618Z,99.99
2017-05-04T03:58:49.658Z,99.84
2017-05-04T03:59:58.910Z,99.99
2017-05-04T04:01:07.953Z,99.99
2017-05-04T04:02:16.996Z,99.99
2017-05-04T04:03:26.033Z,99.99
2017-05-04T04:04:34.991Z,99.99
2017-05-04T04:05:44.337Z,99.99
2017-05-04T04:06:53.316Z,99.99
2017-05-04T04:08:02.271Z,99.99
2017-05-04T04:09:11.228Z,99.99
2017-05-04T04:10:20.186Z,99.99
2017-05-04T04:11:29.393Z,99.99
2017-05-04T04:12:38.347Z,99.99
2017-05-04T04:13:47.389Z,99.99
2017-05-04T04:14:56.341Z,99.99
2017-05-04T04:16:05.290Z,99.99
2017-05-04T04:17:14.540Z,99.99
2017-05-04T04:18:23.494Z,99.99
2017-05-04T04:19:32.446Z,99.99
2017-05-04T04:20:41.486Z,99.99
2017-05-04T04:21:50.439Z,99.99
2017-05-04T04:22:59.646Z,99.99
2017-05-04T04:24:08.602Z,99.99
2017-05-04T04:25:17.560Z,99.99
2017-05-04T04:26:26.512Z,99.99
2017-05-04T04:27:35.557Z,99.99
2017-05-04T04:28:44.906Z,99.99
2017-05-04T04:29:53.867Z,99.99
2017-05-04T04:31:03.490Z,99.99
2017-05-04T04:32:12.442Z,99.99
2017-05-04T04:33:21.398Z,99.99
2017-05-04T04:34:30.657Z,99.99
2017-05-04T04:35:39.609Z,99.99
2017-05-04T04:36:48.561Z,99.99
2017-05-04T04:37:57.508Z,99.99
2017-05-04T04:39:06.456Z,99.99
2017-05-04T04:40:15.711Z,99.99
2017-05-04T04:41:24.663Z,99.99
2017-05-04T04:42:33.720Z,99.99
2017-05-04T04:43:42.674Z,99.99
2017-05-04T04:44:51.756Z,99.99
2017-05-04T04:46:01.104Z,99.99
2017-05-04T04:47:10.276Z,99.99
2017-05-04T04:48:19.499Z,99.99
2017-05-04T04:49:28.742Z,99.99
2017-05-04T04:50:37.698Z,99.99
2017-05-04T04:51:46.939Z,99.99
2017-05-04T04:52:55.910Z,99.99
2017-05-04T04:54:04.945Z,99.99
2017-05-04T04:55:13.992Z,99.99
2017-05-04T04:56:23.086Z,99.99
2017-05-04T04:57:32.345Z,99.99
2017-05-04T04:58:41.674Z,99.99
2017-05-04T04:59:51.105Z,99.99
2017-05-04T05:01:01.104Z,99.99
2017-05-04T05:02:11.368Z,99.99
2017-05-04T05:03:20.708Z,99.99
2017-05-04T05:04:29.743Z,99.99
2017-05-04T05:05:38.699Z,99.99
2017-05-04T05:06:47.762Z,99.99
2017-05-04T05:07:56.825Z,99.99
2017-05-04T05:09:06.164Z,99.99
2017-05-04T05:10:15.112Z,99.99
2017-05-04T05:11:24.205Z,99.99
2017-05-04T05:12:33.289Z,99.99
2017-05-04T05:13:42.248Z,99.99
2017-05-04T05:14:51.609Z,99.99
2017-05-04T05:16:00.838Z,99.99
2017-05-04T05:17:09.936Z,99.99
2017-05-04T05:18:19.113Z,99.99
2017-05-04T05:19:28.067Z,99.99
2017-05-04T05:20:37.480Z,99.99
2017-05-04T05:21:46.562Z,99.99
2017-05-04T05:22:56.130Z,99.99
2017-05-04T05:24:05.308Z,99.99
2017-05-04T05:25:14.540Z,99.99
2017-05-04T05:26:24.147Z,99.99
2017-05-04T05:27:33.418Z,99.99
2017-05-04T05:28:42.513Z,99.99
2017-05-04T05:29:51.552Z,99.99
2017-05-04T05:31:00.778Z,99.99
2017-05-04T05:32:10.117Z,99.99
2017-05-04T05:33:19.344Z,99.99
2017-05-04T05:34:28.628Z,99.99
2017-05-04T05:35:37.631Z,99.99
2017-05-04T05:36:46.726Z,99.99
2017-05-04T05:37:55.986Z,99.99
2017-05-04T05:39:04.942Z,99.99
2017-05-04T05:40:13.964Z,99.99
2017-05-04T05:41:23.001Z,99.99
2017-05-04T05:42:31.958Z,99.99
2017-05-04T05:43:41.683Z,99.99
2017-05-04T05:44:50.730Z,99.99
2017-05-04T05:45:59.855Z,99.99
2017-05-04T05:47:08.829Z,99.99
2017-05-04T05:48:17.779Z,99.99
2017-05-04T05:49:27.026Z,99.99
2017-05-04T05:50:35.977Z,99.99
2017-05-04T05:51:45.089Z,99.99
2017-05-04T05:52:54.481Z,99.99
2017-05-04T05:54:03.528Z,99.99
2017-05-04T05:55:12.870Z,99.99
2017-05-04T05:56:22.032Z,99.99
2017-05-04T05:57:31.040Z,99.99
2017-05-04T05:58:40.180Z,99.99
2017-05-04T05:59:50.078Z,99.99
2017-05-04T06:00:59.473Z,99.99
2017-05-04T06:02:08.623Z,99.99
2017-05-04T06:03:17.997Z,99.99
2017-05-04T06:04:27.065Z,99.99
2017-05-04T06:05:36.624Z,99.99
2017-05-04T06:06:46.387Z,99.99
2017-05-04T06:07:55.391Z,99.99
2017-05-04T06:09:04.494Z,99.99
2017-05-04T06:10:13.581Z,99.99
2017-05-04T06:11:22.638Z,99.99
2017-05-04T06:12:32.031Z,99.99
2017-05-04T06:13:41.201Z,99.99
2017-05-04T06:14:50.242Z,99.99
2017-05-04T06:15:59.601Z,99.99
2017-05-04T06:17:08.825Z,99.99
2017-05-04T06:18:18.332Z,99.99
2017-05-04T06:19:27.461Z,99.99
2017-05-04T06:20:36.786Z,99.99
2017-05-04T06:21:46.064Z,99.99
2017-05-04T06:22:55.438Z,99.99
2017-05-04T06:24:04.696Z,99.99
2017-05-04T06:25:13.723Z,99.99
2017-05-04T06:26:22.830Z,99.99
2017-05-04T06:27:31.974Z,99.99
2017-05-04T06:28:41.030Z,99.99
2017-05-04T06:29:50.782Z,99.99
2017-05-04T06:30:59.795Z,99.99
2017-05-04T06:32:08.855Z,99.99
2017-05-04T06:33:17.921Z,99.99
2017-05-04T06:34:26.978Z,99.99
2017-05-04T06:35:36.180Z,99.99
2017-05-04T06:36:45.142Z,99.99
2017-05-04T06:37:54.737Z,99.99
2017-05-04T06:39:03.691Z,99.99
2017-05-04T06:40:12.645Z,99.99
2017-05-04T06:41:22.008Z,99.99
2017-05-04T06:42:31.295Z,99.99
2017-05-04T06:43:40.610Z,99.99
2017-05-04T06:44:49.738Z,99.99
2017-05-04T06:45:58.803Z,99.99
2017-05-04T06:47:08.428Z,99.99
2017-05-04T06:48:17.434Z,99.99
2017-05-04T06:49:26.440Z,99.99
2017-05-04T06:50:35.478Z,99.99
2017-05-04T06:51:44.518Z,99.99
2017-05-04T06:52:53.773Z,99.99
2017-05-04T06:54:02.894Z,99.99
2017-05-04T06:55:11.988Z,99.99
2017-05-04T06:56:21.202Z,99.99
2017-05-04T06:57:30.263Z,99.99
2017-05-04T06:58:39.572Z,99.99
2017-05-04T06:59:48.526Z,99.99
2017-05-04T07:00:57.485Z,99.99
2017-05-04T07:02:06.521Z,99.99
2017-05-04T07:03:15.483Z,99.99
2017-05-04T07:04:24.740Z,99.99
2017-05-04T07:05:33.689Z,99.99
2017-05-04T07:06:42.645Z,99.99
2017-05-04T07:07:51.687Z,99.99
2017-05-04T07:09:00.647Z,99.99
2017-05-04T07:10:09.898Z,99.99
2017-05-04T07:11:18.941Z,99.99
2017-05-04T07:12:27.919Z,99.99
2017-05-04T07:13:36.869Z,99.99
2017-05-04T07:14:45.936Z,99.99
2017-05-04T07:15:55.139Z,99.99
2017-05-04T07:17:04.182Z,99.99
2017-05-04T07:18:13.226Z,99.99
2017-05-04T07:19:22.177Z,99.99
2017-05-04T07:20:32.485Z,99.99
2017-05-04T07:21:41.702Z,99.99
2017-05-04T07:22:50.747Z,99.99
2017-05-04T07:24:00.226Z,99.99
2017-05-04T07:25:09.178Z,99.99
2017-05-04T07:26:18.126Z,99.99
2017-05-04T07:27:27.374Z,99.99
2017-05-04T07:28:36.670Z,99.99
2017-05-04T07:29:45.774Z,99.99
2017-05-04T07:30:54.726Z,99.99
2017-05-04T07:32:03.723Z,99.99
2017-05-04T07:33:13.003Z,99.99
2017-05-04T07:34:22.055Z,99.99
2017-05-04T07:35:31.007Z,99.99
2017-05-04T07:36:39.960Z,99.99
2017-05-04T07:37:48.997Z,99.99
2017-05-04T07:38:58.296Z,99.99
2017-05-04T07:40:07.493Z,99.99
2017-05-04T07:41:16.444Z,99.99
2017-05-04T07:42:25.555Z,99.99
2017-05-04T07:43:34.604Z,99.99
2017-05-04T07:44:44.024Z,99.99
2017-05-04T07:45:52.994Z,99.99
2017-05-04T07:47:01.964Z,99.99
2017-05-04T07:48:11.150Z,99.99
2017-05-04T07:49:20.457Z,99.99
2017-05-04T07:50:29.877Z,99.99
2017-05-04T07:51:38.927Z,99.99
2017-05-04T07:52:48.053Z,99.99
2017-05-04T07:53:57.070Z,99.99
2017-05-04T07:55:06.029Z,99.99
2017-05-04T07:56:15.299Z,99.99
2017-05-04T07:57:24.246Z,99.99
2017-05-04T07:58:33.959Z,99.99
2017-05-04T07:59:45.431Z,99.99
2017-05-04T08:00:57.694Z,99.99
2017-05-04T08:02:10.571Z,99.99
2017-05-04T08:03:23.263Z,99.99
2017-05-04T08:04:35.734Z,99.99
2017-05-04T08:05:47.976Z,99.99
2017-05-04T08:06:59.236Z,99.99
2017-05-04T08:08:08.495Z,99.99
2017-05-04T08:09:17.445Z,99.99
2017-05-04T08:10:26.487Z,99.99
2017-05-04T08:11:35.717Z,99.99
2017-05-04T08:12:44.746Z,99.99
2017-05-04T08:13:54.162Z,99.99
2017-05-04T08:15:03.205Z,99.99
2017-05-04T08:16:12.366Z,99.99
2017-05-04T08:17:21.404Z,99.99
2017-05-04T08:18:30.499Z,99.99
2017-05-04T08:19:39.835Z,99.99
2017-05-04T08:20:48.900Z,99.99
2017-05-04T08:21:57.990Z,99.99
2017-05-04T08:23:07.065Z,99.99
2017-05-04T08:24:16.097Z,99.99
2017-05-04T08:25:25.416Z,99.99
2017-05-04T08:26:34.475Z,99.99
2017-05-04T08:27:43.520Z,99.99
2017-05-04T08:28:52.492Z,99.99
2017-05-04T08:30:01.688Z,99.99
2017-05-04T08:31:11.122Z,99.99
2017-05-04T08:32:20.342Z,99.99
2017-05-04T08:33:29.297Z,99.99
2017-05-04T08:34:38.428Z,99.99
2017-05-04T08:35:47.472Z,99.99
2017-05-04T08:36:56.726Z,99.99
2017-05-04T08:38:05.815Z,99.99
2017-05-04T08:39:15.102Z,99.99
2017-05-04T08:40:24.158Z,99.99
2017-05-04T08:41:33.109Z,99.99
2017-05-04T08:42:42.441Z,99.99
2017-05-04T08:43:51.536Z,99.99
2017-05-04T08:45:00.492Z,99.99
2017-05-04T08:46:09.439Z,99.99
2017-05-04T08:47:18.521Z,99.99
2017-05-04T08:48:27.877Z,99.99
2017-05-04T08:49:36.938Z,99.99
2017-05-04T08:50:46.028Z,99.99
2017-05-04T08:51:54.983Z,99.99
2017-05-04T08:53:03.935Z,99.99
2017-05-04T08:54:13.190Z,99.99
2017-05-04T08:55:22.976Z,99.99
2017-05-04T08:56:31.931Z,99.99
2017-05-04T08:57:41.301Z,99.99
2017-05-04T08:58:50.266Z,99.99
2017-05-04T08:59:59.517Z,99.99
2017-05-04T09:01:08.567Z,99.99
2017-05-04T09:02:17.601Z,99.99
2017-05-04T09:03:26.640Z,99.99
2017-05-04T09:04:35.693Z,99.99
2017-05-04T09:05:44.950Z,99.99
2017-05-04T09:06:53.904Z,99.99
2017-05-04T09:08:02.883Z,99.99
2017-05-04T09:09:11.840Z,99.99
2017-05-04T09:10:20.791Z,99.99
2017-05-04T09:11:30.043Z,99.99
2017-05-04T09:12:38.994Z,99.99
2017-05-04T09:13:47.952Z,99.99
2017-05-04T09:14:56.903Z,99.99
2017-05-04T09:16:05.948Z,99.99
2017-05-04T09:17:15.150Z,99.99
2017-05-04T09:18:24.101Z,99.99
2017-05-04T09:19:33.065Z,99.99
2017-05-04T09:20:42.020Z,99.99
2017-05-04T09:21:50.970Z,99.99
2017-05-04T09:23:00.498Z,99.99
2017-05-04T09:24:09.450Z,99.99
2017-05-04T09:25:18.411Z,99.99
2017-05-04T09:26:27.470Z,99.99
2017-05-04T09:27:36.521Z,99.99
2017-05-04T09:28:45.792Z,99.99
2017-05-04T09:29:54.739Z,99.99
2017-05-04T09:31:03.692Z,99.99
2017-05-04T09:32:12.641Z,99.99
2017-05-04T09:33:21.598Z,99.99
2017-05-04T09:34:30.861Z,99.99
2017-05-04T09:35:39.819Z,99.99
2017-05-04T09:36:48.792Z,99.99
2017-05-04T09:37:57.748Z,99.99
2017-05-04T09:39:06.702Z,99.99
2017-05-04T09:40:15.913Z,99.99
2017-05-04T09:41:24.868Z,99.99
2017-05-04T09:42:33.814Z,99.99
2017-05-04T09:43:43.090Z,99.99
2017-05-04T09:44:52.040Z,99.99
2017-05-04T09:46:01.302Z,99.99
2017-05-04T09:47:10.253Z,99.99
2017-05-04T09:48:19.208Z,99.99
2017-05-04T09:49:28.161Z,99.99
2017-05-04T09:50:37.111Z,99.99
2017-05-04T09:51:46.363Z,99.99
2017-05-04T09:52:55.312Z,99.99
2017-05-04T09:54:04.264Z,99.99
2017-05-04T09:55:13.217Z,99.99
2017-05-04T09:56:22.180Z,99.99
2017-05-04T09:57:31.433Z,99.99
2017-05-04T09:58:40.473Z,99.99
2017-05-04T09:59:49.421Z,99.99
2017-05-04T10:00:58.381Z,99.99
2017-05-04T10:02:07.333Z,99.99
2017-05-04T10:03:16.590Z,99.99
2017-05-04T10:04:25.551Z,99.99
2017-05-04T10:05:34.512Z,99.99
2017-05-04T10:06:43.473Z,99.99
2017-05-04T10:07:52.758Z,99.99
2017-05-04T10:09:02.023Z,99.99
2017-05-04T10:10:11.065Z,99.99
2017-05-04T10:11:20.011Z,99.99
2017-05-04T10:12:28.962Z,99.99
2017-05-04T10:13:38.105Z,99.99
2017-05-04T10:14:48.022Z,99.99
2017-05-04T10:15:57.128Z,99.99
2017-05-04T10:17:06.178Z,99.99
2017-05-04T10:18:15.175Z,99.99
2017-05-04T10:19:24.131Z,99.99
2017-05-04T10:20:33.615Z,99.99
2017-05-04T10:21:42.811Z,99.99
2017-05-04T10:22:51.954Z,99.99
2017-05-04T10:24:00.909Z,99.99
2017-05-04T10:25:09.866Z,99.99
2017-05-04T10:26:19.119Z,99.99
2017-05-04T10:27:28.159Z,99.99
2017-05-04T10:28:37.198Z,99.99
2017-05-04T10:29:46.152Z,99.99
2017-05-04T10:30:55.106Z,99.99
2017-05-04T10:32:04.475Z,99.99
2017-05-04T10:33:14.107Z,99.99
2017-05-04T10:34:23.753Z,99.99
2017-05-04T10:35:32.832Z,99.99
2017-05-04T10:36:41.967Z,99.99
2017-05-04T10:37:51.336Z,99.99
2017-05-04T10:39:00.502Z,99.99
2017-05-04T10:40:09.515Z,99.99
2017-05-04T10:41:18.610Z,99.99
2017-05-04T10:42:27.697Z,99.99
2017-05-04T10:43:36.952Z,99.99
2017-05-04T10:44:46.014Z,99.99
2017-05-04T10:45:55.223Z,99.99
2017-05-04T10:47:04.243Z,99.99
2017-05-04T10:48:13.194Z,99.99
2017-05-04T10:49:22.484Z,99.99
2017-05-04T10:50:31.543Z,99.99
2017-05-04T10:51:40.506Z,99.99
2017-05-04T10:52:49.663Z,99.99
2017-05-04T10:53:58.636Z,99.99
2017-05-04T10:55:07.916Z,99.99
2017-05-04T10:56:16.978Z,99.99
2017-05-04T10:57:26.050Z,99.99
2017-05-04T10:58:35.019Z,99.99
2017-05-04T10:59:44.020Z,99.99
2017-05-04T11:00:53.306Z,99.99
2017-05-04T11:02:02.287Z,99.99
2017-05-04T11:03:11.261Z,99.99
2017-05-04T11:04:20.238Z,99.99
2017-05-04T11:05:29.213Z,99.99
2017-05-04T11:06:38.493Z,99.99
2017-05-04T11:07:47.480Z,99.99
2017-05-04T11:08:56.474Z,99.99
2017-05-04T11:10:05.448Z,99.99
2017-05-04T11:11:14.420Z,99.99
2017-05-04T11:12:23.694Z,99.99
2017-05-04T11:13:32.671Z,99.99
2017-05-04T11:14:41.647Z,99.99
2017-05-04T11:15:50.635Z,99.99
2017-05-04T11:16:59.610Z,99.99
2017-05-04T11:18:08.885Z,99.99
2017-05-04T11:19:17.865Z,99.99
2017-05-04T11:20:26.835Z,99.99
2017-05-04T11:21:35.807Z,99.99
2017-05-04T11:22:44.865Z,99.99
2017-05-04T11:23:54.085Z,99.99
2017-05-04T11:25:03.156Z,99.99
2017-05-04T11:26:12.127Z,99.99
2017-05-04T11:27:21.102Z,99.99
2017-05-04T11:28:30.074Z,99.99
2017-05-04T11:29:39.356Z,99.99
2017-05-04T11:30:48.407Z,99.99
2017-05-04T11:31:57.357Z,99.99
2017-05-04T11:33:06.307Z,99.99
2017-05-04T11:34:15.258Z,99.99
2017-05-04T11:35:24.516Z,99.99
2017-05-04T11:36:33.468Z,99.99
2017-05-04T11:37:42.425Z,99.99
2017-05-04T11:38:51.384Z,99.99
2017-05-04T11:40:00.354Z,99.99
2017-05-04T11:41:09.701Z,99.99
2017-05-04T11:42:18.656Z,99.99
2017-05-04T11:43:27.697Z,99.99
2017-05-04T11:44:36.651Z,99.99
2017-05-04T11:45:45.676Z,99.99
2017-05-04T11:46:55.905Z,99.99
2017-05-04T11:48:04.858Z,99.99
2017-05-04T11:49:13.812Z,99.99
2017-05-04T11:50:22.766Z,99.99
2017-05-04T11:51:31.719Z,99.99
2017-05-04T11:52:40.921Z,99.99
2017-05-04T11:53:49.870Z,99.99
2017-05-04T11:54:58.829Z,99.99
2017-05-04T11:56:07.868Z,99.99
2017-05-04T11:57:16.821Z,99.99
2017-05-04T11:58:26.028Z,99.99
2017-05-04T11:59:34.985Z,99.99
2017-05-04T12:00:43.942Z,99.99
2017-05-04T12:01:52.896Z,99.99
2017-05-04T12:03:01.845Z,99.99
2017-05-04T12:04:11.100Z,99.99
2017-05-04T12:05:20.051Z,99.99
2017-05-04T12:06:29.003Z,99.99
2017-05-04T12:07:37.958Z,99.99
2017-05-04T12:08:47.000Z,99.99
2017-05-04T12:09:56.341Z,99.99
2017-05-04T12:11:05.301Z,99.99
2017-05-04T12:12:14.256Z,99.99
2017-05-04T12:13:23.207Z,99.99
2017-05-04T12:14:32.158Z,99.99
2017-05-04T12:15:41.357Z,99.99
2017-05-04T12:16:50.417Z,99.99
2017-05-04T12:17:59.377Z,99.99
2017-05-04T12:19:08.333Z,99.99
2017-05-04T12:20:17.283Z,99.99
2017-05-04T12:21:26.626Z,99.99
2017-05-04T12:22:35.665Z,99.99
2017-05-04T12:23:44.699Z,99.99
2017-05-04T12:24:53.654Z,99.99
2017-05-04T12:26:02.610Z,99.99
2017-05-04T12:27:11.868Z,99.99
2017-05-04T12:28:20.873Z,99.99
2017-05-04T12:29:30.094Z,99.99
2017-05-04T12:30:39.345Z,99.99
2017-05-04T12:31:48.399Z,99.99
2017-05-04T12:32:57.934Z,99.99
2017-05-04T12:34:07.029Z,99.99
2017-05-04T12:35:16.352Z,99.99
2017-05-04T12:36:25.496Z,99.99
2017-05-04T12:37:34.541Z,99.99
2017-05-04T12:38:43.951Z,99.99
2017-05-04T12:39:52.956Z,99.99
2017-05-04T12:41:02.257Z,99.99
2017-05-04T12:42:11.268Z,99.99
2017-05-04T12:43:20.449Z,99.99
2017-05-04T12:44:29.893Z,99.99
2017-05-04T12:45:38.878Z,99.99
2017-05-04T12:46:47.952Z,99.99
2017-05-04T12:47:57.130Z,99.99
2017-05-04T12:49:06.127Z,99.99
2017-05-04T12:50:15.468Z,99.99
2017-05-04T12:51:24.623Z,99.99
2017-05-04T12:52:33.650Z,99.99
2017-05-04T12:53:42.611Z,99.99
2017-05-04T12:54:51.569Z,99.99
2017-05-04T12:56:00.864Z,99.99
2017-05-04T12:57:09.814Z,99.99
2017-05-04T12:58:18.793Z,99.99
2017-05-04T12:59:28.166Z,99.99
2017-05-04T13:00:37.115Z,99.99
2017-05-04T13:01:46.369Z,99.99
2017-05-04T13:02:55.324Z,99.99
2017-05-04T13:04:04.281Z,99.99
2017-05-04T13:05:13.232Z,99.99
2017-05-04T13:06:22.192Z,99.99
2017-05-04T13:07:31.448Z,99.99
2017-05-04T13:08:40.410Z,99.99
2017-05-04T13:09:49.368Z,99.99
2017-05-04T13:10:58.324Z,99.99
2017-05-04T13:12:07.307Z,99.99
2017-05-04T13:13:16.559Z,99.99
2017-05-04T13:14:25.509Z,99.99
2017-05-04T13:15:34.460Z,99.99
2017-05-04T13:16:43.411Z,99.99
2017-05-04T13:17:52.462Z,99.99
2017-05-04T13:19:01.671Z,99.99
2017-05-04T13:20:10.625Z,99.99
2017-05-04T13:21:19.660Z,99.99
2017-05-04T13:22:28.607Z,99.99
2017-05-04T13:23:37.645Z,99.99
2017-05-04T13:24:46.942Z,99.99
2017-05-04T13:25:55.893Z,99.99
2017-05-04T13:27:04.854Z,99.99
2017-05-04T13:28:13.805Z,99.99
2017-05-04T13:29:22.762Z,99.99
2017-05-04T13:30:32.018Z,99.99
2017-05-04T13:31:40.974Z,99.99
2017-05-04T13:32:50.246Z,99.99
2017-05-04T13:33:59.197Z,99.99
2017-05-04T13:35:08.156Z,99.99
2017-05-04T13:36:17.411Z,99.99
2017-05-04T13:37:26.366Z,99.99
2017-05-04T13:38:35.645Z,99.99
2017-05-04T13:39:44.597Z,99.99
2017-05-04T13:40:53.556Z,99.99
2017-05-04T13:42:02.763Z,99.99
2017-05-04T13:43:11.717Z,99.99
2017-05-04T13:44:20.754Z,99.99
2017-05-04T13:45:29.708Z,99.99
2017-05-04T13:46:38.996Z,99.99
2017-05-04T13:47:48.251Z,99.99
2017-05-04T13:48:57.294Z,99.99
2017-05-04T13:50:06.246Z,99.99
2017-05-04T13:51:15.196Z,99.99
2017-05-04T13:52:24.150Z,99.99
2017-05-04T13:53:33.403Z,99.99
2017-05-04T13:54:42.352Z,99.99
2017-05-04T13:55:51.390Z,99.99
2017-05-04T13:57:00.361Z,99.99
2017-05-04T13:58:09.313Z,99.99
2017-05-04T13:59:18.567Z,99.99
2017-05-04T14:00:27.521Z,99.99
2017-05-04T14:01:36.804Z,99.99
2017-05-04T14:02:45.758Z,99.99
2017-05-04T14:03:55.037Z,99.99
2017-05-04T14:05:04.376Z,99.99
2017-05-04T14:06:13.329Z,99.99
2017-05-04T14:07:22.279Z,99.99
2017-05-04T14:08:31.645Z,99.99
2017-05-04T14:09:40.609Z,99.99
2017-05-04T14:10:49.817Z,99.99
2017-05-04T14:11:58.852Z,99.99
2017-05-04T14:13:07.805Z,99.99
2017-05-04T14:14:17.087Z,99.99
2017-05-04T14:15:26.039Z,99.99
2017-05-04T14:16:35.294Z,99.99
2017-05-04T14:17:44.248Z,99.99
2017-05-04T14:18:53.201Z,99.99
2017-05-04T14:20:02.152Z,99.99
2017-05-04T14:21:11.111Z,99.99
2017-05-04T14:22:20.454Z,99.99
2017-05-04T14:23:29.816Z,99.99
2017-05-04T14:24:38.856Z,99.99
2017-05-04T14:25:47.808Z,99.99
2017-05-04T14:26:56.761Z,99.99
2017-05-04T14:28:06.022Z,99.99
2017-05-04T14:29:14.970Z,99.99
2017-05-04T14:30:23.926Z,99.99
2017-05-04T14:31:32.971Z,99.99
2017-05-04T14:32:41.940Z,99.99
2017-05-04T14:33:51.525Z,99.99
2017-05-04T14:35:00.489Z,99.99
2017-05-04T14:36:09.450Z,99.99
2017-05-04T14:37:18.404Z,99.99
2017-05-04T14:38:27.378Z,99.99
2017-05-04T14:39:36.633Z,99.99
2017-05-04T14:40:45.596Z,99.99
2017-05-04T14:41:54.551Z,99.99
2017-05-04T14:43:03.501Z,99.99
2017-05-04T14:44:12.644Z,99.99
2017-05-04T14:45:21.917Z,99.99
2017-05-04T14:46:30.900Z,99.99
2017-05-04T14:47:39.885Z,99.99
2017-05-04T14:48:48.862Z,99.99
2017-05-04T14:49:57.840Z,99.99
2017-05-04T14:51:07.546Z,99.99